CDT,Max TemperatureF,Mean TemperatureF,Min TemperatureF,Max Dew PointF,MeanDew PointF,Min DewpointF,Max Humidity, Mean Humidity, Min Humidity, Max Sea Level PressureIn, Mean Sea Level PressureIn, Min Sea Level PressureIn, Max VisibilityMiles, Mean VisibilityMiles, Min VisibilityMiles, Max Wind SpeedMPH, Mean Wind SpeedMPH, Max Gust SpeedMPH,PrecipitationIn, CloudCover, Events, WindDirDegrees
2014-4-1,67,56,45,57,51,41,85,76,62,30.19,30.15,30.11,10,10,10,12,6,,0.00,2,Rain,97
2014-4-2,70,60,51,61,58,48,88,79,71,30.18,30.13,30.09,10,8,1,13,5,,0.00,4,,118
2014-4-3,73,68,64,62,61,60,88,81,65,30.10,30.06,30.00,10,9,2,17,9,24,0.00,5,Rain,147
2014-4-4,75,69,62,64,61,58,88,79,61,30.06,29.98,29.92,10,7,0,15,10,,0.06,5,Fog-Rain,149
2014-4-5,73,68,62,63,61,57,88,80,61,30.04,30.00,29.94,10,7,0,17,5,31,1.01,7,Rain-Thunderstorm,14
2014-4-6,70,66,62,66,63,59,88,85,78,29.98,29.90,29.81,10,9,0,21,6,22,0.20,8,Fog-Rain,116
2014-4-7,71,68,63,66,63,50,88,83,61,29.82,29.74,29.68,10,6,0,20,14,30,0.49,7,Rain-Thunderstorm,200
2014-4-8,68,59,51,49,42,36,74,54,33,29.93,29.85,29.81,10,10,10,18,11,24,0.00,3,,325
2014-4-9,72,62,51,47,41,29,77,55,21,30.21,30.08,29.94,10,10,10,18,11,25,0.00,2,,344
2014-4-10,70,58,47,53,46,39,84,60,33,30.30,30.24,30.21,10,10,10,10,5,,0.00,0,,141
2014-4-11,72,62,51,59,53,47,86,69,46,30.27,30.20,30.15,10,10,10,13,5,,0.00,1,Rain,97
2014-4-12,75,63,51,63,52,48,88,78,38,30.21,30.15,30.10,10,4,0,12,3,,0.00,2,Fog-Rain,12
2014-4-13,74,69,64,63,61,59,88,80,67,30.14,30.07,29.99,10,10,10,16,7,18,0.00,3,,139
2014-4-14,75,71,67,66,64,63,88,82,69,29.97,29.84,29.74,10,7,1,37,11,46,3.15,6,Rain-Thunderstorm,163
2014-4-15,67,57,46,63,54,32,88,77,40,30.15,29.84,29.74,10,8,1,28,11,34,1.44,6,Rain-Thunderstorm,322
2014-4-16,67,54,41,46,34,26,73,48,30,30.25,30.17,30.12,10,10,10,14,9,,0.00,0,,56
2014-4-17,73,63,53,56,51,44,85,64,44,30.26,30.17,30.13,10,9,2,14,10,21,0.41,7,Rain,67
2014-4-18,63,60,57,57,55,50,88,83,72,30.16,30.02,29.93,10,6,1,22,13,31,1.17,8,Rain,41
2014-4-19,77,66,56,53,50,48,79,64,39,30.11,30.04,29.99,10,10,10,22,13,31,0.00,7,,11
2014-4-20,63,58,54,54,50,48,85,71,59,30.19,30.14,30.08,10,10,10,14,8,,0.00,5,,37
2014-4-21,70,60,50,57,52,47,86,71,53,30.17,30.09,30.01,10,10,10,10,4,,0.00,0,,274
2014-4-22,72,64,56,63,59,52,87,75,60,30.00,29.92,29.86,10,10,10,14,6,21,0.00,3,,253
2014-4-23,77,68,60,63,59,55,88,81,52,29.97,29.91,29.88,10,5,0,13,3,,0.00,0,Fog,337
2014-4-24,74,68,61,65,62,57,88,79,61,30.02,29.94,29.91,10,9,0,13,5,,0.00,4,Fog,191
2014-4-25,78,74,69,70,66,64,84,79,70,29.99,29.96,29.92,10,10,10,15,7,22,0.00,5,Rain,225
2014-4-26,78,72,66,68,65,61,88,83,70,30.04,29.97,29.92,10,6,0,12,2,,0.00,3,Fog-Rain,211
2014-4-27,78,74,71,69,67,65,88,79,68,29.97,29.94,29.88,10,10,10,20,6,25,0.00,4,Rain,129
2014-4-28,79,75,71,72,69,66,88,83,72,29.90,29.82,29.75,10,10,7,17,11,24,0.00,5,,140
2014-4-29,75,70,65,70,64,59,88,79,61,29.94,29.79,29.70,10,8,0,26,14,41,3.88,7,Rain-Thunderstorm,136
2014-4-30,71,67,64,64,62,60,88,86,75,30.01,29.87,29.78,10,5,0,26,13,31,5.84,7,Fog-Rain-Thunderstorm,122